Huddle, NY

9:32 PM EST on December 03, 2016 (GMT -0500)
Chicken Thistle Farm | | Change Station

Elev 528 ft 43.11 °N, 77.28 °W | Updated 12 minutes ago

Overcast
Overcast
37.1 °F
Feels Like 34 °F
N
4.0
Wind Variable Wind from NNW
Gusts 9.0 mph

Today
High -- | Low -- °F
--% Chance of Precip.
Yesterday
High -- | Low -- °F
Precip. -- in
Pressure 30.23 in
Visibility 10.0 miles
Clouds Few 3100 ft
Overcast 4800 ft
Windchill 34 °F
Dew Point 29 °F
Humidity 73%
Rainfall 0.02 in
Snow Depth Not available.
7:23 AM 4:34 PM
Waxing Crescent, 19% visible
METAR KROC 040154Z 32005KT 10SM FEW031 OVC048 04/M02 A3020 RMK AO2 SLP236 T00391017
Pressure 30.23 in
Visibility 10.0 miles
Clouds Few 3100 ft
Overcast 4800 ft
Windchill 34 °F
Dew Point 29 °F
Humidity 73%
Rainfall 0.02 in
Snow Depth Not available.
7:23 AM 4:34 PM
Waxing Crescent, 19% visible
METAR KROC 040154Z 32005KT 10SM FEW031 OVC048 04/M02 A3020 RMK AO2 SLP236 T00391017

10-Day Weather Forecast

Almanac

Astronomy

Dec. 03, 2016 Rise Set
Actual Time
Civil Twilight
Nautical Twilight
Astronomical Twilight
Moon
Length of Visible Light
Length of Day
Tomorrow will be .
, % of the Moon is Illuminated

Today's Extremes

State Highs State Lows

Community

WunderPhotos

Upload Photos

1,955,564 photos uploaded!

WunderBlog® & News

Nearby

Air Quality

  Air Quality AQ Index Pollutant
Not available.

Snow Depth

Station Depth Elevation

Earthquake Activity

City Distance Mag. Time & Date
Minimum magnitude displayed is 2.5.

Coastal Water Temperatures

Place Temperature

Stations

Nearby Weather Stations

Station Location Temp. Windchill Dew Point Humidity Wind Precip. Elev Updated Type
                   

Watches & Warnings

There are currently no watches in effect.